Portada
METAR-TAF:

METAR-TAF

Aeroports :

Bandar Lengeh, Iran

latitud: 26-35N, longitud: 054-50E, altitud: 14 m

Observació

L'informe es va fer fa 38 minuts, a les 08:00 UTC
Vent 8 kt del Sud
Temperatura 37°C
Humitat 60%
Pressió 997 hPa
Visibilitat: 5000 m
calitja

METAR: OIBL 190800Z 17008KT 5000 HZ NSC 37/28 Q0997

Hora: 13:08 (08:38 UTC)


TAF: manca

Observacions i pronòstics meteorològics de més de 4000 aeroports (METAR i TAF).

Les estacions disponibles són els punts grocs i vermells al mapa.

Posi el ratolí al punt desitjat per veure el nom de l'estació.

Feu clic per veure les observacions i els pronòstics meteorològics.

Per canviar el mapa: feu clic els botons verds amb una creu de color negre per apropar; al botó verd amb un guió per allunyar la imatge; o en les fletxes verdes per a mapes adjacents.


METAR-TAF: